Airfield :
LOGIN :

Register | Disclaimer

   EN    FR    IT 

 










Legend :    VFR   Marginal VFR   IFR   Intensive IFR   Very Intensive IFR
Visi :
Ceiling :
>= 8 km
>= 3000ft
5 to 8 km
1000 to 3000 ft
1500m to 5 km
500 to 1000 ft
800 to 1500m
200 to 500 ft
< 800m
< 200 ft
Symbols :   Thunderstorms  Fog  Heavy snow  Heavy precipitations  Wind > 20 kt
SIGMETs :     Misc.  Thunderstorms  Icing  Turbulence  Mountain Waves  Volcanic Ashes







- Airport Elevation : 538 ft
- IATA code : TNF
- Download approach charts


LFPN - Toussus Le Noble

CURRENT METAR :
  • 251500Z AUTO 31005KT 280V340 9999 FEW028 SCT047 BKN056 21/15 Q1018 NOSIG

EXPIRED METARs :
  • 251430Z AUTO 24005KT 190V280 9999 FEW029 BKN049 BKN056 21/14 Q1018 NOSIG
  • 251400Z AUTO VRB02KT CAVOK 21/15 Q1018 NOSIG
  • 251330Z AUTO 23003KT 180V270 CAVOK 20/14 Q1018 NOSIG
  • 251300Z AUTO 18004KT 140V220 CAVOK 20/14 Q1018 NOSIG
  • 251230Z AUTO VRB03KT CAVOK 20/14 Q1018 NOSIG

TAF TAF LFPN
Valid from the 25 at 15:00 until the 26 at 00:00 UTC


251400Z 2515/2524 VRB05KT CAVOK
PROB30
TEMPO 2515/2521 -SHRA BKN040
ATIS : +33 1 39 56 54 70
No reported NOTAMs for that airfield.



MET'MAP, your aeronautical weather chart ! - Copyright ORBIFLY December 2007 - Disclaimer

ORBIFLY MET'MAP TEAM :

Programming & Development : Alexandra Zaïnal
Concept & Development : Baudouin d'Aumeries
Co-Development & Prog : Marc-Olivier Méhu
Technical & hardware support : Manuel Goepfert

Contact : metmap@orbifly.com




SOURCES & CREDITS :

   NOAA